Grande Prairie Airport
CYQU : rendu visible

Aérodrome :











RETROUVEZ-NOUS SUR...

 
LOGIN :

S'inscrire | Disclaimer

   EN    FR    IT 

 









Légende :    VFR   VFR Marginal   IFR   IFR Intensif   IFR Très Intensif
Visi : 
Plafond : 
>= 8 km
>= 3000ft
5 à 8 km
1000 à 3000 ft
1500m à 5 km
500 à 1000 ft
800 à 1500m
200 à 500 ft
< 800m
< 200 ft
Symboles :   Orages  Brouillard  Fortes neiges  Fortes précipitations  Vent > 20 kt






- Altitude de l'aérodrome : 2195 ft
- Code IATA : YQU


CYQU - Grande Prairie

DERNIER METAR :
  • 311000Z VRB02KT 25SM BKN160 M03/M06 A3000 RMK AS7 SLP197

METARs EXPIRÉS :
  • 310900Z 30004KT 240V320 25SM BKN200 M04/M08 A2998 RMK CS6 SLP191
  • 310800Z 29004KT 260V040 25SM SKC M06/M07 A2997 RMK SLP187

TAF TAF CYQU
Valide du 31 à 07h jusqu'au 31 à 19h UTC


310638Z 3107/3119 28010KT P6SM FEW060
BECMG 3110/3112 25012KT
FM311500 25015G25KT P6SM BKN100
BECMG 3117/3119 25020G30KT RMK NXT FCST BY 311300Z
FIR CZEG / Amérique du Nord



MET'MAP, la Météo Aéronautique d'un coup d'oeil ! - Copyright ORBIFLY Décembre 2007 - Disclaimer

ORBIFLY MET'MAP TEAM :

Programmation & Développement : Alexandra Zaïnal
Sur une idée originale de : Baudouin d'Aumeries
Assistance à la programmation : Marc-Olivier Méhu
Soutien technique & logistique : Manuel Goepfert

Contact : metmap@orbifly.com




SOURCES & CREDITS :

   NOAA       Earth
Advisory